Lecompte, LA (71346)

6:23 AM CST on February 22, 2017 (GMT -0600)
MUP368 | | Change Station

Elev 68 ft 31.12 °N, 92.41 °W | Updated 11 minutes ago

Overcast
Overcast
58.0 °F
Feels Like 58.0 °F
N
-
Wind Variable Wind from North

Today
High -- | Low -- °F
--% Chance of Precip.
Yesterday
High -- | Low -- °F
Precip. -- in
Pressure 29.87 in
Visibility 10.0 miles
Clouds Few 1400 ft
Overcast 2100 ft
Dew Point Not available.
Humidity Not available.
Rainfall in
Snow Depth Not available.
6:43 AM 6:02 PM
Waning Crescent, 17% visible
METAR KAEX 221153Z 36005KT 10SM FEW014 OVC021 16/14 A2986 RMK AO2 SLP115 60003 70014 T01560144 10161 20150 53008
Pressure 29.87 in
Visibility 10.0 miles
Clouds Few 1400 ft
Overcast 2100 ft
Dew Point Not available.
Humidity Not available.
Rainfall in
Snow Depth Not available.
6:43 AM 6:02 PM
Waning Crescent, 17% visible
METAR KAEX 221153Z 36005KT 10SM FEW014 OVC021 16/14 A2986 RMK AO2 SLP115 60003 70014 T01560144 10161 20150 53008

Get Your Daily Forecast Email!

Thanks for signing up!

Be on the lookout for a verification email in your inbox.

You'll start receiving the daily forecast at 8 AM.

×

10-Day Weather Forecast

Almanac

Astronomy

Feb. 22, 2017 Rise Set
Actual Time
Civil Twilight
Nautical Twilight
Astronomical Twilight
Moon
Length of Visible Light
Length of Day
Tomorrow will be .
, % of the Moon is Illuminated

Today's Extremes

State Highs State Lows

Community

WunderPhotos

Upload Photos

1,962,540 photos uploaded!

WunderBlog® & News

Nearby

Air Quality

  Air Quality AQ Index Pollutant
Not available.

Snow Depth

Station Depth Elevation

Earthquake Activity

City Distance Mag. Time & Date
Minimum magnitude displayed is 2.5.

Coastal Water Temperatures

Place Temperature

Stations

Nearby Weather Stations

Station Location Temp. Windchill Dew Point Humidity Wind Precip. Elev Updated Type
                   

Watches & Warnings

There are currently no watches in effect.